Rechercher aéroport 
image banner adimage banner adimage banner ad
image banner ad

L22 - Yucca Valley

Situé à Yucca Valley, United States

ICAO - L22, IATA -

Données fournies par Airmate  

Information générale

Coordonnées: N34°7'47" W116°24'25"
Élévation : 3224 feet MSL.
Variation magnétique : 14° East
Voir autres Aéroports à California

Données opérationnelles

Special qualification required
Heure actuelle UTC:
Heure actuelle locale:
Météo à : KNXP - Twentynine Palms Self ( 29 km )
METAR: KNXP 212256Z AUTO VRB04KT 10SM CLR 36/M08 A3019 RMK AO2 SLP187 T03561078
TAF: TAF KNXP 2121/2221 VRB05KT 9999 SKC QNH3014INS TEMPO 2121/2203 12008KT T35/2120Z T20/2214Z
Voir NOTAMs / SUP AIP / TFR affectant cet aéroport [VIEW]
Fréquences de communication: [VIEW]

Pistes:

Identifiant RWYQFULongueur (ft)Largeur (ft)SurfaceLDA (ft)
0670°436360ASPH
24250°436360ASPH

Coordonnées de l'aéroport

Adresse: Yucca Valley United States

Vue satellite de L22